sensor_id;sensor_type;location;lat;lon;timestamp;P1;durP1;ratioP1;P2;durP2;ratioP2
14396;SDS011;50653;47.810;13.022;2023-05-27T00:00:07;12.00;;;9.73;;
14396;SDS011;50653;47.810;13.022;2023-05-27T00:02:34;12.50;;;11.30;;
14396;SDS011;50653;47.810;13.022;2023-05-27T00:05:00;13.43;;;12.20;;
14396;SDS011;50653;47.810;13.022;2023-05-27T00:07:25;14.93;;;11.90;;
14396;SDS011;50653;47.810;13.022;2023-05-27T00:09:51;14.30;;;11.10;;
14396;SDS011;50653;47.810;13.022;2023-05-27T00:12:17;10.00;;;9.13;;
14396;SDS011;50653;47.810;13.022;2023-05-27T00:14:43;15.43;;;11.40;;
14396;SDS011;50653;47.810;13.022;2023-05-27T00:17:09;18.03;;;13.07;;
14396;SDS011;50653;47.810;13.022;2023-05-27T00:19:38;12.97;;;11.63;;
14396;SDS011;50653;47.810;13.022;2023-05-27T00:22:04;13.60;;;10.43;;
14396;SDS011;50653;47.810;13.022;2023-05-27T00:24:29;20.63;;;13.97;;
14396;SDS011;50653;47.810;13.022;2023-05-27T00:26:55;16.83;;;14.67;;
14396;SDS011;50653;47.810;13.022;2023-05-27T00:29:21;16.07;;;12.33;;
14396;SDS011;50653;47.810;13.022;2023-05-27T00:31:47;12.23;;;10.87;;
14396;SDS011;50653;47.810;13.022;2023-05-27T00:34:12;11.20;;;10.03;;
14396;SDS011;50653;47.810;13.022;2023-05-27T00:36:38;13.00;;;11.63;;
14396;SDS011;50653;47.810;13.022;2023-05-27T00:39:04;10.50;;;9.50;;
14396;SDS011;50653;47.810;13.022;2023-05-27T00:41:30;9.73;;;8.93;;
14396;SDS011;50653;47.810;13.022;2023-05-27T00:43:56;14.17;;;9.20;;
14396;SDS011;50653;47.810;13.022;2023-05-27T00:46:22;10.30;;;9.30;;
14396;SDS011;50653;47.810;13.022;2023-05-27T00:48:48;12.20;;;9.33;;
14396;SDS011;50653;47.810;13.022;2023-05-27T00:51:14;11.50;;;9.30;;
14396;SDS011;50653;47.810;13.022;2023-05-27T00:53:41;13.10;;;10.80;;
14396;SDS011;50653;47.810;13.022;2023-05-27T00:56:08;11.97;;;9.57;;
14396;SDS011;50653;47.810;13.022;2023-05-27T00:58:35;12.18;;;10.98;;
14396;SDS011;50653;47.810;13.022;2023-05-27T01:01:02;13.27;;;10.60;;
14396;SDS011;50653;47.810;13.022;2023-05-27T01:03:32;10.20;;;9.27;;
14396;SDS011;50653;47.810;13.022;2023-05-27T01:06:02;14.17;;;10.43;;
14396;SDS011;50653;47.810;13.022;2023-05-27T01:08:37;11.90;;;9.83;;
14396;SDS011;50653;47.810;13.022;2023-05-27T01:11:11;10.83;;;9.80;;
14396;SDS011;50653;47.810;13.022;2023-05-27T01:13:40;13.07;;;11.88;;
14396;SDS011;50653;47.810;13.022;2023-05-27T01:16:11;10.40;;;9.50;;
14396;SDS011;50653;47.810;13.022;2023-05-27T01:18:42;12.67;;;10.27;;
14396;SDS011;50653;47.810;13.022;2023-05-27T01:21:12;11.03;;;10.03;;
14396;SDS011;50653;47.810;13.022;2023-05-27T01:23:42;15.80;;;9.43;;
14396;SDS011;50653;47.810;13.022;2023-05-27T01:26:09;11.77;;;8.70;;
14396;SDS011;50653;47.810;13.022;2023-05-27T01:28:35;13.55;;;11.30;;
14396;SDS011;50653;47.810;13.022;2023-05-27T01:31:23;14.02;;;11.50;;
14396;SDS011;50653;47.810;13.022;2023-05-27T01:33:54;11.03;;;9.90;;
14396;SDS011;50653;47.810;13.022;2023-05-27T01:36:25;11.30;;;10.20;;
14396;SDS011;50653;47.810;13.022;2023-05-27T01:38:54;13.53;;;10.67;;
14396;SDS011;50653;47.810;13.022;2023-05-27T01:41:21;15.17;;;9.90;;
14396;SDS011;50653;47.810;13.022;2023-05-27T01:43:48;13.53;;;12.00;;
14396;SDS011;50653;47.810;13.022;2023-05-27T01:46:14;11.33;;;10.00;;
14396;SDS011;50653;47.810;13.022;2023-05-27T01:48:40;9.93;;;9.10;;
14396;SDS011;50653;47.810;13.022;2023-05-27T01:51:07;10.57;;;9.57;;
14396;SDS011;50653;47.810;13.022;2023-05-27T01:53:34;11.60;;;9.63;;
14396;SDS011;50653;47.810;13.022;2023-05-27T01:55:59;17.30;;;10.50;;
14396;SDS011;50653;47.810;13.022;2023-05-27T01:58:26;10.80;;;9.73;;
14396;SDS011;50653;47.810;13.022;2023-05-27T02:00:52;10.33;;;9.43;;
14396;SDS011;50653;47.810;13.022;2023-05-27T02:03:17;15.87;;;10.37;;
14396;SDS011;50653;47.810;13.022;2023-05-27T02:05:43;14.33;;;9.50;;
14396;SDS011;50653;47.810;13.022;2023-05-27T02:08:10;13.23;;;12.02;;
14396;SDS011;50653;47.810;13.022;2023-05-27T02:10:36;12.30;;;11.13;;
14396;SDS011;50653;47.810;13.022;2023-05-27T02:13:01;17.33;;;9.93;;
14396;SDS011;50653;47.810;13.022;2023-05-27T02:15:28;9.40;;;8.07;;
14396;SDS011;50653;47.810;13.022;2023-05-27T02:17:54;11.50;;;8.63;;
14396;SDS011;50653;47.810;13.022;2023-05-27T02:20:23;11.10;;;8.90;;
14396;SDS011;50653;47.810;13.022;2023-05-27T02:22:50;12.40;;;9.87;;
14396;SDS011;50653;47.810;13.022;2023-05-27T02:25:17;15.23;;;9.73;;
14396;SDS011;50653;47.810;13.022;2023-05-27T02:27:42;11.73;;;10.63;;
14396;SDS011;50653;47.810;13.022;2023-05-27T02:30:12;16.20;;;12.40;;
14396;SDS011;50653;47.810;13.022;2023-05-27T02:32:38;10.03;;;9.10;;
14396;SDS011;50653;47.810;13.022;2023-05-27T02:35:04;11.93;;;9.07;;
14396;SDS011;50653;47.810;13.022;2023-05-27T02:37:30;11.70;;;10.40;;
14396;SDS011;50653;47.810;13.022;2023-05-27T02:39:57;10.73;;;9.63;;
14396;SDS011;50653;47.810;13.022;2023-05-27T02:42:23;11.60;;;10.13;;
14396;SDS011;50653;47.810;13.022;2023-05-27T02:44:49;13.00;;;11.67;;
14396;SDS011;50653;47.810;13.022;2023-05-27T02:47:15;12.20;;;11.00;;
14396;SDS011;50653;47.810;13.022;2023-05-27T02:49:41;12.17;;;11.00;;
14396;SDS011;50653;47.810;13.022;2023-05-27T02:52:06;14.38;;;13.07;;
14396;SDS011;50653;47.810;13.022;2023-05-27T02:54:32;11.93;;;10.83;;
14396;SDS011;50653;47.810;13.022;2023-05-27T02:56:58;14.10;;;11.27;;
14396;SDS011;50653;47.810;13.022;2023-05-27T02:59:23;13.33;;;12.03;;
14396;SDS011;50653;47.810;13.022;2023-05-27T03:01:49;15.55;;;12.38;;
14396;SDS011;50653;47.810;13.022;2023-05-27T03:04:15;15.32;;;13.82;;
14396;SDS011;50653;47.810;13.022;2023-05-27T03:06:41;15.30;;;13.10;;
14396;SDS011;50653;47.810;13.022;2023-05-27T03:09:08;14.10;;;12.75;;
14396;SDS011;50653;47.810;13.022;2023-05-27T03:11:35;15.65;;;12.40;;
14396;SDS011;50653;47.810;13.022;2023-05-27T03:14:00;14.93;;;13.53;;
14396;SDS011;50653;47.810;13.022;2023-05-27T03:16:26;16.60;;;14.80;;
14396;SDS011;50653;47.810;13.022;2023-05-27T03:18:51;17.17;;;13.48;;
14396;SDS011;50653;47.810;13.022;2023-05-27T03:21:17;15.43;;;13.83;;
14396;SDS011;50653;47.810;13.022;2023-05-27T03:23:44;15.32;;;13.52;;
14396;SDS011;50653;47.810;13.022;2023-05-27T03:26:10;15.47;;;13.77;;
14396;SDS011;50653;47.810;13.022;2023-05-27T03:28:37;14.88;;;13.27;;
14396;SDS011;50653;47.810;13.022;2023-05-27T03:31:03;14.15;;;12.75;;
14396;SDS011;50653;47.810;13.022;2023-05-27T03:33:41;17.52;;;13.45;;
14396;SDS011;50653;47.810;13.022;2023-05-27T03:36:07;15.00;;;13.52;;
14396;SDS011;50653;47.810;13.022;2023-05-27T03:38:33;16.63;;;14.00;;
14396;SDS011;50653;47.810;13.022;2023-05-27T03:40:59;14.60;;;13.20;;
14396;SDS011;50653;47.810;13.022;2023-05-27T03:43:27;15.63;;;14.00;;
14396;SDS011;50653;47.810;13.022;2023-05-27T03:45:52;14.65;;;13.13;;
14396;SDS011;50653;47.810;13.022;2023-05-27T03:48:18;15.93;;;14.20;;
14396;SDS011;50653;47.810;13.022;2023-05-27T03:50:44;17.00;;;13.80;;
14396;SDS011;50653;47.810;13.022;2023-05-27T03:53:09;16.15;;;13.70;;
14396;SDS011;50653;47.810;13.022;2023-05-27T03:55:35;14.77;;;13.35;;
14396;SDS011;50653;47.810;13.022;2023-05-27T03:58:01;15.70;;;14.10;;
14396;SDS011;50653;47.810;13.022;2023-05-27T04:00:26;16.00;;;14.00;;
14396;SDS011;50653;47.810;13.022;2023-05-27T04:02:53;15.88;;;14.27;;
14396;SDS011;50653;47.810;13.022;2023-05-27T04:05:21;16.02;;;14.30;;
14396;SDS011;50653;47.810;13.022;2023-05-27T04:07:47;16.50;;;14.70;;
14396;SDS011;50653;47.810;13.022;2023-05-27T04:10:12;16.27;;;14.60;;
14396;SDS011;50653;47.810;13.022;2023-05-27T04:12:39;18.50;;;15.70;;
14396;SDS011;50653;47.810;13.022;2023-05-27T04:15:06;17.80;;;16.00;;
14396;SDS011;50653;47.810;13.022;2023-05-27T04:17:32;17.52;;;15.82;;
14396;SDS011;50653;47.810;13.022;2023-05-27T04:19:58;21.75;;;16.70;;
14396;SDS011;50653;47.810;13.022;2023-05-27T04:22:24;18.80;;;17.00;;
14396;SDS011;50653;47.810;13.022;2023-05-27T04:24:51;21.37;;;18.20;;
14396;SDS011;50653;47.810;13.022;2023-05-27T04:27:18;19.73;;;17.67;;
14396;SDS011;50653;47.810;13.022;2023-05-27T04:29:44;19.05;;;16.95;;
14396;SDS011;50653;47.810;13.022;2023-05-27T04:32:11;17.40;;;15.60;;
14396;SDS011;50653;47.810;13.022;2023-05-27T04:34:38;17.90;;;15.15;;
14396;SDS011;50653;47.810;13.022;2023-05-27T04:37:07;20.38;;;17.02;;
14396;SDS011;50653;47.810;13.022;2023-05-27T04:39:35;20.33;;;17.73;;
14396;SDS011;50653;47.810;13.022;2023-05-27T04:42:01;18.57;;;16.67;;
14396;SDS011;50653;47.810;13.022;2023-05-27T04:44:31;17.20;;;15.40;;
14396;SDS011;50653;47.810;13.022;2023-05-27T04:46:58;18.45;;;14.90;;
14396;SDS011;50653;47.810;13.022;2023-05-27T04:49:24;16.38;;;13.70;;
14396;SDS011;50653;47.810;13.022;2023-05-27T04:51:50;14.48;;;12.93;;
14396;SDS011;50653;47.810;13.022;2023-05-27T04:54:18;13.43;;;12.23;;
14396;SDS011;50653;47.810;13.022;2023-05-27T04:56:45;14.25;;;12.82;;
14396;SDS011;50653;47.810;13.022;2023-05-27T04:59:19;15.70;;;12.43;;
14396;SDS011;50653;47.810;13.022;2023-05-27T05:01:46;16.25;;;13.93;;
14396;SDS011;50653;47.810;13.022;2023-05-27T05:04:39;13.80;;;12.23;;
14396;SDS011;50653;47.810;13.022;2023-05-27T05:07:06;14.48;;;13.02;;
14396;SDS011;50653;47.810;13.022;2023-05-27T05:09:34;12.73;;;11.63;;
14396;SDS011;50653;47.810;13.022;2023-05-27T05:12:07;12.63;;;11.43;;
14396;SDS011;50653;47.810;13.022;2023-05-27T05:14:37;12.55;;;11.25;;
14396;SDS011;50653;47.810;13.022;2023-05-27T05:17:03;18.53;;;16.30;;
14396;SDS011;50653;47.810;13.022;2023-05-27T05:19:29;14.07;;;12.80;;
14396;SDS011;50653;47.810;13.022;2023-05-27T05:21:56;12.57;;;11.38;;
14396;SDS011;50653;47.810;13.022;2023-05-27T05:24:21;13.00;;;11.60;;
14396;SDS011;50653;47.810;13.022;2023-05-27T05:26:48;12.10;;;11.00;;
14396;SDS011;50653;47.810;13.022;2023-05-27T05:29:13;12.68;;;11.30;;
14396;SDS011;50653;47.810;13.022;2023-05-27T05:31:40;12.20;;;10.93;;
14396;SDS011;50653;47.810;13.022;2023-05-27T05:34:07;14.48;;;10.90;;
14396;SDS011;50653;47.810;13.022;2023-05-27T05:36:35;12.70;;;10.90;;
14396;SDS011;50653;47.810;13.022;2023-05-27T05:39:05;12.43;;;11.13;;
14396;SDS011;50653;47.810;13.022;2023-05-27T05:41:31;12.35;;;11.15;;
14396;SDS011;50653;47.810;13.022;2023-05-27T05:43:57;13.05;;;11.50;;
14396;SDS011;50653;47.810;13.022;2023-05-27T05:46:23;12.20;;;10.83;;
14396;SDS011;50653;47.810;13.022;2023-05-27T05:48:51;22.33;;;18.47;;
14396;SDS011;50653;47.810;13.022;2023-05-27T05:51:23;17.30;;;14.23;;
14396;SDS011;50653;47.810;13.022;2023-05-27T05:53:53;12.48;;;11.27;;
14396;SDS011;50653;47.810;13.022;2023-05-27T05:56:20;12.03;;;10.83;;
14396;SDS011;50653;47.810;13.022;2023-05-27T05:58:46;14.43;;;12.10;;
14396;SDS011;50653;47.810;13.022;2023-05-27T06:01:12;13.57;;;11.07;;
14396;SDS011;50653;47.810;13.022;2023-05-27T06:03:41;13.30;;;11.97;;
14396;SDS011;50653;47.810;13.022;2023-05-27T06:06:12;12.90;;;11.80;;
14396;SDS011;50653;47.810;13.022;2023-05-27T06:09:11;12.07;;;10.98;;
14396;SDS011;50653;47.810;13.022;2023-05-27T06:11:37;12.60;;;11.30;;
14396;SDS011;50653;47.810;13.022;2023-05-27T06:14:03;12.32;;;11.05;;
14396;SDS011;50653;47.810;13.022;2023-05-27T06:16:29;16.63;;;11.85;;
14396;SDS011;50653;47.810;13.022;2023-05-27T06:18:55;12.67;;;10.40;;
14396;SDS011;50653;47.810;13.022;2023-05-27T06:21:20;11.20;;;10.10;;
14396;SDS011;50653;47.810;13.022;2023-05-27T06:24:05;17.58;;;15.75;;
14396;SDS011;50653;47.810;13.022;2023-05-27T06:26:34;44.05;;;33.50;;
14396;SDS011;50653;47.810;13.022;2023-05-27T06:29:00;15.18;;;13.57;;
14396;SDS011;50653;47.810;13.022;2023-05-27T06:31:29;38.55;;;29.38;;
14396;SDS011;50653;47.810;13.022;2023-05-27T06:33:55;19.98;;;17.85;;
14396;SDS011;50653;47.810;13.022;2023-05-27T06:36:21;11.73;;;9.20;;
14396;SDS011;50653;47.810;13.022;2023-05-27T06:38:47;10.47;;;9.30;;
14396;SDS011;50653;47.810;13.022;2023-05-27T06:41:13;15.93;;;10.63;;
14396;SDS011;50653;47.810;13.022;2023-05-27T06:43:47;10.40;;;8.98;;
14396;SDS011;50653;47.810;13.022;2023-05-27T06:46:36;11.15;;;10.00;;
14396;SDS011;50653;47.810;13.022;2023-05-27T06:49:06;13.50;;;11.98;;
14396;SDS011;50653;47.810;13.022;2023-05-27T06:51:32;11.88;;;10.77;;
14396;SDS011;50653;47.810;13.022;2023-05-27T06:53:58;11.48;;;10.43;;
14396;SDS011;50653;47.810;13.022;2023-05-27T06:56:33;10.48;;;9.57;;
14396;SDS011;50653;47.810;13.022;2023-05-27T06:59:19;12.43;;;8.43;;
14396;SDS011;50653;47.810;13.022;2023-05-27T07:01:46;13.40;;;9.40;;
14396;SDS011;50653;47.810;13.022;2023-05-27T07:04:13;16.27;;;9.98;;
14396;SDS011;50653;47.810;13.022;2023-05-27T07:06:53;17.57;;;9.20;;
14396;SDS011;50653;47.810;13.022;2023-05-27T07:09:18;9.63;;;8.47;;
14396;SDS011;50653;47.810;13.022;2023-05-27T07:11:44;10.75;;;8.63;;
14396;SDS011;50653;47.810;13.022;2023-05-27T07:14:15;11.93;;;8.90;;
14396;SDS011;50653;47.810;13.022;2023-05-27T07:16:42;9.98;;;7.82;;
14396;SDS011;50653;47.810;13.022;2023-05-27T07:19:09;12.50;;;8.50;;
14396;SDS011;50653;47.810;13.022;2023-05-27T07:21:44;9.38;;;8.50;;
14396;SDS011;50653;47.810;13.022;2023-05-27T07:24:14;8.50;;;7.70;;
14396;SDS011;50653;47.810;13.022;2023-05-27T07:26:40;12.90;;;10.80;;
14396;SDS011;50653;47.810;13.022;2023-05-27T07:29:06;12.32;;;9.20;;
14396;SDS011;50653;47.810;13.022;2023-05-27T07:31:52;9.80;;;8.35;;
14396;SDS011;50653;47.810;13.022;2023-05-27T07:34:22;9.05;;;7.72;;
14396;SDS011;50653;47.810;13.022;2023-05-27T07:36:49;13.57;;;9.13;;
14396;SDS011;50653;47.810;13.022;2023-05-27T07:39:15;9.27;;;8.37;;
14396;SDS011;50653;47.810;13.022;2023-05-27T07:41:41;10.50;;;9.50;;
14396;SDS011;50653;47.810;13.022;2023-05-27T07:44:07;10.60;;;9.50;;
14396;SDS011;50653;47.810;13.022;2023-05-27T07:46:34;10.70;;;9.63;;
14396;SDS011;50653;47.810;13.022;2023-05-27T07:48:59;11.00;;;7.83;;
14396;SDS011;50653;47.810;13.022;2023-05-27T07:51:26;16.47;;;9.37;;
14396;SDS011;50653;47.810;13.022;2023-05-27T07:53:52;15.53;;;8.80;;
14396;SDS011;50653;47.810;13.022;2023-05-27T07:56:19;11.13;;;8.63;;
14396;SDS011;50653;47.810;13.022;2023-05-27T07:58:45;11.10;;;8.57;;
14396;SDS011;50653;47.810;13.022;2023-05-27T08:01:12;12.60;;;8.33;;
14396;SDS011;50653;47.810;13.022;2023-05-27T08:03:44;19.20;;;9.20;;
14396;SDS011;50653;47.810;13.022;2023-05-27T08:06:17;9.70;;;8.13;;
14396;SDS011;50653;47.810;13.022;2023-05-27T08:08:49;9.10;;;8.20;;
14396;SDS011;50653;47.810;13.022;2023-05-27T08:11:34;11.97;;;8.63;;
14396;SDS011;50653;47.810;13.022;2023-05-27T08:14:25;16.53;;;9.07;;
14396;SDS011;50653;47.810;13.022;2023-05-27T08:17:20;9.93;;;8.80;;
14396;SDS011;50653;47.810;13.022;2023-05-27T08:20:08;9.47;;;8.57;;
14396;SDS011;50653;47.810;13.022;2023-05-27T08:22:54;20.07;;;9.00;;
14396;SDS011;50653;47.810;13.022;2023-05-27T08:25:35;8.43;;;7.70;;
14396;SDS011;50653;47.810;13.022;2023-05-27T08:28:14;15.43;;;8.70;;
14396;SDS011;50653;47.810;13.022;2023-05-27T08:31:07;10.10;;;8.60;;
14396;SDS011;50653;47.810;13.022;2023-05-27T08:33:36;13.00;;;9.30;;
14396;SDS011;50653;47.810;13.022;2023-05-27T08:36:03;10.30;;;9.30;;
14396;SDS011;50653;47.810;13.022;2023-05-27T08:38:29;9.83;;;8.00;;
14396;SDS011;50653;47.810;13.022;2023-05-27T08:41:07;8.67;;;7.97;;
14396;SDS011;50653;47.810;13.022;2023-05-27T08:43:32;10.43;;;9.33;;
14396;SDS011;50653;47.810;13.022;2023-05-27T08:46:00;9.63;;;7.53;;
14396;SDS011;50653;47.810;13.022;2023-05-27T08:48:26;8.33;;;6.90;;
14396;SDS011;50653;47.810;13.022;2023-05-27T08:50:52;8.30;;;7.53;;
14396;SDS011;50653;47.810;13.022;2023-05-27T08:53:18;9.73;;;7.80;;
14396;SDS011;50653;47.810;13.022;2023-05-27T08:55:46;9.60;;;8.03;;
14396;SDS011;50653;47.810;13.022;2023-05-27T08:58:16;9.17;;;8.37;;
14396;SDS011;50653;47.810;13.022;2023-05-27T09:00:46;15.60;;;7.17;;
14396;SDS011;50653;47.810;13.022;2023-05-27T09:03:18;8.10;;;7.27;;
14396;SDS011;50653;47.810;13.022;2023-05-27T09:05:44;9.57;;;8.17;;
14396;SDS011;50653;47.810;13.022;2023-05-27T09:08:10;10.30;;;7.83;;
14396;SDS011;50653;47.810;13.022;2023-05-27T09:10:37;12.03;;;7.77;;
14396;SDS011;50653;47.810;13.022;2023-05-27T09:13:03;10.27;;;8.70;;
14396;SDS011;50653;47.810;13.022;2023-05-27T09:15:33;10.20;;;8.07;;
14396;SDS011;50653;47.810;13.022;2023-05-27T09:17:59;9.90;;;8.97;;
14396;SDS011;50653;47.810;13.022;2023-05-27T09:20:25;8.57;;;7.40;;
14396;SDS011;50653;47.810;13.022;2023-05-27T09:23:01;8.50;;;7.30;;
14396;SDS011;50653;47.810;13.022;2023-05-27T09:25:30;10.87;;;8.50;;
14396;SDS011;50653;47.810;13.022;2023-05-27T09:27:55;9.13;;;8.33;;
14396;SDS011;50653;47.810;13.022;2023-05-27T09:30:22;13.10;;;8.83;;
14396;SDS011;50653;47.810;13.022;2023-05-27T09:32:49;9.67;;;8.87;;
14396;SDS011;50653;47.810;13.022;2023-05-27T09:35:15;10.33;;;9.17;;
14396;SDS011;50653;47.810;13.022;2023-05-27T09:37:42;8.50;;;7.20;;
14396;SDS011;50653;47.810;13.022;2023-05-27T09:40:11;7.67;;;7.07;;
14396;SDS011;50653;47.810;13.022;2023-05-27T09:45:08;8.43;;;7.73;;
14396;SDS011;50653;47.810;13.022;2023-05-27T09:47:39;7.73;;;7.00;;
14396;SDS011;50653;47.810;13.022;2023-05-27T09:50:05;13.90;;;7.50;;
14396;SDS011;50653;47.810;13.022;2023-05-27T09:52:36;7.30;;;6.70;;
14396;SDS011;50653;47.810;13.022;2023-05-27T09:55:05;11.73;;;7.50;;
14396;SDS011;50653;47.810;13.022;2023-05-27T09:57:33;11.53;;;8.70;;
14396;SDS011;50653;47.810;13.022;2023-05-27T09:59:59;10.13;;;7.83;;
14396;SDS011;50653;47.810;13.022;2023-05-27T10:02:46;18.52;;;8.10;;
14396;SDS011;50653;47.810;13.022;2023-05-27T10:05:14;9.60;;;8.35;;
14396;SDS011;50653;47.810;13.022;2023-05-27T10:07:42;8.20;;;7.40;;
14396;SDS011;50653;47.810;13.022;2023-05-27T10:10:14;10.40;;;8.20;;
14396;SDS011;50653;47.810;13.022;2023-05-27T10:12:42;13.00;;;7.97;;
14396;SDS011;50653;47.810;13.022;2023-05-27T10:15:09;9.43;;;7.10;;
14396;SDS011;50653;47.810;13.022;2023-05-27T10:20:41;6.80;;;5.90;;
14396;SDS011;50653;47.810;13.022;2023-05-27T10:23:11;10.37;;;6.43;;
14396;SDS011;50653;47.810;13.022;2023-05-27T10:25:44;10.23;;;6.23;;
14396;SDS011;50653;47.810;13.022;2023-05-27T10:31:10;7.37;;;6.53;;
14396;SDS011;50653;47.810;13.022;2023-05-27T10:33:43;10.80;;;6.27;;
14396;SDS011;50653;47.810;13.022;2023-05-27T10:36:12;9.00;;;5.13;;
14396;SDS011;50653;47.810;13.022;2023-05-27T10:38:57;9.10;;;5.80;;
14396;SDS011;50653;47.810;13.022;2023-05-27T10:41:28;14.47;;;7.10;;
14396;SDS011;50653;47.810;13.022;2023-05-27T10:44:03;10.23;;;5.60;;
14396;SDS011;50653;47.810;13.022;2023-05-27T10:46:37;7.53;;;5.90;;
14396;SDS011;50653;47.810;13.022;2023-05-27T10:49:10;7.73;;;5.50;;
14396;SDS011;50653;47.810;13.022;2023-05-27T10:51:36;8.50;;;6.00;;
14396;SDS011;50653;47.810;13.022;2023-05-27T10:54:03;11.77;;;5.33;;
14396;SDS011;50653;47.810;13.022;2023-05-27T10:56:30;8.33;;;6.17;;
14396;SDS011;50653;47.810;13.022;2023-05-27T10:58:55;7.93;;;5.97;;
14396;SDS011;50653;47.810;13.022;2023-05-27T11:01:22;8.13;;;7.23;;
14396;SDS011;50653;47.810;13.022;2023-05-27T11:03:52;8.37;;;5.67;;
14396;SDS011;50653;47.810;13.022;2023-05-27T11:06:19;9.03;;;5.13;;
14396;SDS011;50653;47.810;13.022;2023-05-27T11:08:45;12.30;;;5.70;;
14396;SDS011;50653;47.810;13.022;2023-05-27T11:11:12;8.07;;;5.17;;
14396;SDS011;50653;47.810;13.022;2023-05-27T11:13:39;5.83;;;5.33;;
14396;SDS011;50653;47.810;13.022;2023-05-27T11:16:09;9.77;;;6.25;;
14396;SDS011;50653;47.810;13.022;2023-05-27T11:21:14;8.52;;;7.32;;
14396;SDS011;50653;47.810;13.022;2023-05-27T11:23:44;7.00;;;6.40;;
14396;SDS011;50653;47.810;13.022;2023-05-27T11:31:20;9.87;;;5.63;;
14396;SDS011;50653;47.810;13.022;2023-05-27T11:33:50;7.03;;;5.13;;
14396;SDS011;50653;47.810;13.022;2023-05-27T11:36:16;8.03;;;5.23;;
14396;SDS011;50653;47.810;13.022;2023-05-27T11:38:52;6.90;;;5.60;;
14396;SDS011;50653;47.810;13.022;2023-05-27T11:41:19;17.57;;;6.23;;
14396;SDS011;50653;47.810;13.022;2023-05-27T11:43:51;8.53;;;5.37;;
14396;SDS011;50653;47.810;13.022;2023-05-27T11:46:20;14.07;;;6.13;;
14396;SDS011;50653;47.810;13.022;2023-05-27T11:48:46;9.13;;;6.27;;
14396;SDS011;50653;47.810;13.022;2023-05-27T11:51:12;6.57;;;5.40;;
14396;SDS011;50653;47.810;13.022;2023-05-27T11:53:38;5.90;;;5.37;;
14396;SDS011;50653;47.810;13.022;2023-05-27T11:56:05;9.03;;;5.03;;
14396;SDS011;50653;47.810;13.022;2023-05-27T11:58:31;8.43;;;6.10;;
14396;SDS011;50653;47.810;13.022;2023-05-27T12:00:57;6.40;;;5.80;;
14396;SDS011;50653;47.810;13.022;2023-05-27T12:03:22;6.23;;;5.63;;
14396;SDS011;50653;47.810;13.022;2023-05-27T12:05:48;5.80;;;4.93;;
14396;SDS011;50653;47.810;13.022;2023-05-27T12:08:13;8.47;;;5.80;;
14396;SDS011;50653;47.810;13.022;2023-05-27T12:10:39;12.13;;;5.90;;
14396;SDS011;50653;47.810;13.022;2023-05-27T12:13:05;10.87;;;6.10;;
14396;SDS011;50653;47.810;13.022;2023-05-27T12:15:31;9.30;;;6.10;;
14396;SDS011;50653;47.810;13.022;2023-05-27T12:17:57;12.50;;;6.60;;
14396;SDS011;50653;47.810;13.022;2023-05-27T12:20:23;7.93;;;5.73;;
14396;SDS011;50653;47.810;13.022;2023-05-27T12:22:53;9.25;;;6.45;;
14396;SDS011;50653;47.810;13.022;2023-05-27T12:25:20;10.27;;;5.90;;
14396;SDS011;50653;47.810;13.022;2023-05-27T12:27:46;7.53;;;6.83;;
14396;SDS011;50653;47.810;13.022;2023-05-27T12:30:12;6.93;;;6.22;;
14396;SDS011;50653;47.810;13.022;2023-05-27T12:32:38;8.05;;;6.20;;
14396;SDS011;50653;47.810;13.022;2023-05-27T12:35:04;11.65;;;5.80;;
14396;SDS011;50653;47.810;13.022;2023-05-27T12:37:31;8.27;;;5.83;;
14396;SDS011;50653;47.810;13.022;2023-05-27T12:39:56;10.80;;;6.15;;
14396;SDS011;50653;47.810;13.022;2023-05-27T12:42:22;9.65;;;6.25;;
14396;SDS011;50653;47.810;13.022;2023-05-27T12:44:48;9.63;;;6.10;;
14396;SDS011;50653;47.810;13.022;2023-05-27T12:47:13;8.00;;;5.45;;
14396;SDS011;50653;47.810;13.022;2023-05-27T12:49:39;11.10;;;5.83;;
14396;SDS011;50653;47.810;13.022;2023-05-27T12:52:05;11.10;;;5.87;;
14396;SDS011;50653;47.810;13.022;2023-05-27T12:54:31;7.33;;;5.20;;
14396;SDS011;50653;47.810;13.022;2023-05-27T12:56:57;9.37;;;6.33;;
14396;SDS011;50653;47.810;13.022;2023-05-27T12:59:22;6.60;;;5.87;;
14396;SDS011;50653;47.810;13.022;2023-05-27T13:01:48;10.03;;;6.17;;
14396;SDS011;50653;47.810;13.022;2023-05-27T13:04:14;7.83;;;4.93;;
14396;SDS011;50653;47.810;13.022;2023-05-27T13:06:40;10.37;;;5.60;;
14396;SDS011;50653;47.810;13.022;2023-05-27T13:09:06;6.40;;;5.40;;
14396;SDS011;50653;47.810;13.022;2023-05-27T13:11:33;7.93;;;5.47;;
14396;SDS011;50653;47.810;13.022;2023-05-27T13:13:59;14.60;;;6.50;;
14396;SDS011;50653;47.810;13.022;2023-05-27T13:16:25;6.57;;;4.90;;
14396;SDS011;50653;47.810;13.022;2023-05-27T13:18:51;7.90;;;5.90;;
14396;SDS011;50653;47.810;13.022;2023-05-27T13:21:17;6.37;;;5.87;;
14396;SDS011;50653;47.810;13.022;2023-05-27T13:23:42;4.73;;;4.27;;
14396;SDS011;50653;47.810;13.022;2023-05-27T13:26:08;5.30;;;4.80;;
14396;SDS011;50653;47.810;13.022;2023-05-27T13:28:34;6.27;;;5.27;;
14396;SDS011;50653;47.810;13.022;2023-05-27T13:31:00;8.70;;;5.37;;
14396;SDS011;50653;47.810;13.022;2023-05-27T13:33:26;6.50;;;5.83;;
14396;SDS011;50653;47.810;13.022;2023-05-27T13:35:51;4.93;;;4.53;;
14396;SDS011;50653;47.810;13.022;2023-05-27T13:38:17;15.67;;;6.00;;
14396;SDS011;50653;47.810;13.022;2023-05-27T13:40:43;8.90;;;4.30;;
14396;SDS011;50653;47.810;13.022;2023-05-27T13:43:08;5.77;;;5.23;;
14396;SDS011;50653;47.810;13.022;2023-05-27T13:45:34;7.00;;;4.63;;
14396;SDS011;50653;47.810;13.022;2023-05-27T13:48:00;9.77;;;5.73;;
14396;SDS011;50653;47.810;13.022;2023-05-27T13:50:25;6.20;;;5.17;;
14396;SDS011;50653;47.810;13.022;2023-05-27T13:52:53;6.70;;;4.67;;
14396;SDS011;50653;47.810;13.022;2023-05-27T13:55:18;6.17;;;5.40;;
14396;SDS011;50653;47.810;13.022;2023-05-27T13:57:44;5.23;;;4.77;;
14396;SDS011;50653;47.810;13.022;2023-05-27T14:00:10;10.03;;;5.33;;
14396;SDS011;50653;47.810;13.022;2023-05-27T14:02:36;6.50;;;4.97;;
14396;SDS011;50653;47.810;13.022;2023-05-27T14:05:02;5.80;;;5.30;;
14396;SDS011;50653;47.810;13.022;2023-05-27T14:07:28;8.80;;;5.07;;
14396;SDS011;50653;47.810;13.022;2023-05-27T14:09:54;9.53;;;6.33;;
14396;SDS011;50653;47.810;13.022;2023-05-27T14:12:20;6.40;;;5.80;;
14396;SDS011;50653;47.810;13.022;2023-05-27T14:14:45;11.07;;;4.57;;
14396;SDS011;50653;47.810;13.022;2023-05-27T14:17:11;11.13;;;5.83;;
14396;SDS011;50653;47.810;13.022;2023-05-27T14:19:36;8.20;;;4.60;;
14396;SDS011;50653;47.810;13.022;2023-05-27T14:22:02;13.13;;;5.80;;
14396;SDS011;50653;47.810;13.022;2023-05-27T14:24:28;7.03;;;5.70;;
14396;SDS011;50653;47.810;13.022;2023-05-27T14:26:56;13.43;;;7.43;;
14396;SDS011;50653;47.810;13.022;2023-05-27T14:29:23;6.30;;;5.00;;
14396;SDS011;50653;47.810;13.022;2023-05-27T14:31:48;9.50;;;5.40;;
14396;SDS011;50653;47.810;13.022;2023-05-27T14:34:15;5.47;;;4.80;;
14396;SDS011;50653;47.810;13.022;2023-05-27T14:36:41;5.73;;;4.60;;
14396;SDS011;50653;47.810;13.022;2023-05-27T14:39:06;5.00;;;3.67;;
14396;SDS011;50653;47.810;13.022;2023-05-27T14:41:33;11.03;;;4.93;;